Time;durP1;ratioP1;P1;durP2;ratioP2;P2;SDS_P1;SDS_P2;PMS_P1;PMS_P2;Temp;Humidity;BMP_temperature;BMP_pressure;BME280_temperature;BME280_humidity;BME280_pressure;Samples;Min_cycle;Max_cycle;Signal;HPM_P1;HPM_P2
2022/09/07 00:01:51;;;;;;;;;;;;;;;;;;5069931;28;46378;-80
2022/09/07 00:04:18;;;;;;;;;;;;;;;;;;5070036;28;43605;-80
2022/09/07 00:06:44;;;;;;;;;;;;;;;;;;5068549;28;47986;-78
2022/09/07 00:09:10;;;;;;;;;;;;;;;;;;5069716;28;47889;-79
2022/09/07 00:11:37;;;;;;;;;;;;;;;;;;5065485;28;43660;-79
2022/09/07 00:14:04;;;;;;;;;;;;;;;;;;5068234;28;47508;-81
2022/09/07 00:16:30;;;;;;;;;;;;;;;;;;5069844;28;47017;-79
2022/09/07 00:18:57;;;;;;;;;;;;;;;;;;5069115;28;40855;-79
2022/09/07 00:21:24;;;;;;;;;;;;;;;;;;5068412;28;46443;-79
2022/09/07 00:23:50;;;;;;;;;;;;;;;;;;5063200;28;47111;-82
2022/09/07 00:26:16;;;;;;;;;;;;;;;;;;5066305;28;45291;-79
2022/09/07 00:28:43;;;;;;;;;;;;;;;;;;5064997;28;47966;-79
2022/09/07 00:31:09;;;;;;;;;;;;;;;;;;5067217;28;43556;-79
2022/09/07 00:33:35;;;;;;;;;;;;;;;;;;5054655;28;45130;-79
2022/09/07 00:36:01;;;;;;;;;;;;;;;;;;5055793;28;46979;-80
2022/09/07 00:38:28;;;;;;;;;;;;;;;;;;5068910;28;43728;-79
2022/09/07 00:40:54;;;;;;;;;;;;;;;;;;5065751;28;46631;-78
2022/09/07 00:43:20;;;;;;;;;;;;;;;;;;5067181;28;47134;-78
2022/09/07 00:45:47;;;;;;;;;;;;;;;;;;5067834;28;42616;-80
2022/09/07 00:48:15;;;;;;;;;;;;;;;;;;5068278;28;47976;-80
2022/09/07 00:50:41;;;;;;;;;;;;;;;;;;5065432;28;44940;-79
2022/09/07 00:53:08;;;;;;;;;;;;;;;;;;5062004;28;45757;-79
2022/09/07 00:55:34;;;;;;;;;;;;;;;;;;5068900;28;48117;-79
2022/09/07 00:58:00;;;;;;;;;;;;;;;;;;5052066;28;43709;-81
2022/09/07 01:00:27;;;;;;;;;;;;;;;;;;5064599;28;46281;-80
2022/09/07 01:02:54;;;;;;;;;;;;;;;;;;5069028;28;48090;-80
2022/09/07 01:05:20;;;;;;;;;;;;;;;;;;5065905;28;44644;-79
2022/09/07 01:07:47;;;;;;;;;;;;;;;;;;5059186;28;47204;-81
2022/09/07 01:10:13;;;;;;;;;;;;;;;;;;5070739;28;42104;-81
2022/09/07 01:12:39;;;;;;;;;;;;;;;;;;5070122;28;46578;-79
2022/09/07 01:15:05;;;;;;;;;;;;;;;;;;5069578;28;45588;-79
2022/09/07 01:17:31;;;;;;;;;;;;;;;;;;5068834;28;43707;-82
2022/09/07 01:19:58;;;;;;;;;;;;;;;;;;5069872;28;44843;-80
2022/09/07 01:22:24;;;;;;;;;;;;;;;;;;5058201;28;46998;-79
2022/09/07 01:24:50;;;;;;;;;;;;;;;;;;5069745;28;43723;-79
2022/09/07 01:27:16;;;;;;;;;;;;;;;;;;5068642;28;47938;-80
2022/09/07 01:29:43;;;;;;;;;;;;;;;;;;5064828;28;43516;-82
2022/09/07 01:32:09;;;;;;;;;;;;;;;;;;5059623;28;47495;-83
2022/09/07 01:34:35;;;;;;;;;;;;;;;;;;5069916;28;48108;-83
2022/09/07 01:37:01;;;;;;;;;;;;;;;;;;5067171;28;44578;-83
2022/09/07 01:39:28;;;;;;;;;;;;;;;;;;5069409;28;46406;-80
2022/09/07 01:41:54;;;;;;;;;;;;;;;;;;5068005;28;47301;-80
2022/09/07 01:44:20;;;;;;;;;;;;;;;;;;5069979;28;43885;-80
2022/09/07 01:46:46;;;;;;;;;;;;;;;;;;5068755;28;46223;-79
2022/09/07 01:49:13;;;;;;;;;;;;;;;;;;5052805;28;46371;-80
2022/09/07 01:51:40;;;;;;;;;;;;;;;;;;5069364;28;46453;-80
2022/09/07 01:54:06;;;;;;;;;;;;;;;;;;5069736;28;45058;-80
2022/09/07 01:56:32;;;;;;;;;;;;;;;;;;5049997;28;42634;-82
2022/09/07 01:58:58;;;;;;;;;;;;;;;;;;5065134;28;47424;-81
2022/09/07 02:01:25;;;;;;;;;;;;;;;;;;5067412;28;48001;-80
2022/09/07 02:03:51;;;;;;;;;;;;;;;;;;5069147;28;44333;-81
2022/09/07 02:06:17;;;;;;;;;;;;;;;;;;5070020;28;44940;-80
2022/09/07 02:08:44;;;;;;;;;;;;;;;;;;5067270;28;47007;-79
2022/09/07 02:11:10;;;;;;;;;;;;;;;;;;5066305;28;42424;-79
2022/09/07 02:13:36;;;;;;;;;;;;;;;;;;5065280;28;44866;-78
2022/09/07 02:16:02;;;;;;;;;;;;;;;;;;5067312;28;43008;-79
2022/09/07 02:18:28;;;;;;;;;;;;;;;;;;5065317;28;47743;-78
2022/09/07 02:20:55;;;;;;;;;;;;;;;;;;5064309;28;45907;-78
2022/09/07 02:23:21;;;;;;;;;;;;;;;;;;5064901;28;43267;-77
2022/09/07 02:25:50;;;;;;;;;;;;;;;;;;5067092;28;46368;-78
2022/09/07 02:28:16;;;;;;;;;;;;;;;;;;5066759;28;47375;-81
2022/09/07 02:30:43;;;;;;;;;;;;;;;;;;5065029;28;44841;-81
2022/09/07 02:33:09;;;;;;;;;;;;;;;;;;5066628;28;44292;-80
2022/09/07 02:35:35;;;;;;;;;;;;;;;;;;5066934;28;43514;-81
2022/09/07 02:38:01;;;;;;;;;;;;;;;;;;5068756;28;45221;-81
2022/09/07 02:40:28;;;;;;;;;;;;;;;;;;5066758;28;47914;-80
2022/09/07 02:42:54;;;;;;;;;;;;;;;;;;5063818;28;44805;-79
2022/09/07 02:45:20;;;;;;;;;;;;;;;;;;5066113;28;47939;-77
2022/09/07 02:47:47;;;;;;;;;;;;;;;;;;5057925;28;48115;-78
2022/09/07 02:50:13;;;;;;;;;;;;;;;;;;5046447;28;43461;-81
2022/09/07 02:52:39;;;;;;;;;;;;;;;;;;5047380;28;47473;-80
2022/09/07 02:55:06;;;;;;;;;;;;;;;;;;5049157;28;34548;-81
2022/09/07 02:57:32;;;;;;;;;;;;;;;;;;5070778;28;45077;-80
2022/09/07 02:59:58;;;;;;;;;;;;;;;;;;5068261;28;48090;-81
2022/09/07 03:02:24;;;;;;;;;;;;;;;;;;5050162;28;42182;-80
2022/09/07 03:04:51;;;;;;;;;;;;;;;;;;5048301;28;47198;-80
2022/09/07 03:07:17;;;;;;;;;;;;;;;;;;5054871;28;47765;-81
2022/09/07 03:09:44;;;;;;;;;;;;;;;;;;5065841;28;43508;-79
2022/09/07 03:12:11;;;;;;;;;;;;;;;;;;5065151;28;47235;-80
2022/09/07 03:14:37;;;;;;;;;;;;;;;;;;5067717;28;46971;-80
2022/09/07 03:17:03;;;;;;;;;;;;;;;;;;5065448;28;46642;-80
2022/09/07 03:19:30;;;;;;;;;;;;;;;;;;5065826;28;46748;-78
2022/09/07 03:21:56;;;;;;;;;;;;;;;;;;5063949;28;43740;-77
2022/09/07 03:24:22;;;;;;;;;;;;;;;;;;5062483;28;46581;-77
2022/09/07 03:26:50;;;;;;;;;;;;;;;;;;5068544;28;47067;-78
2022/09/07 03:29:16;;;;;;;;;;;;;;;;;;5066389;28;44932;-78
2022/09/07 03:31:43;;;;;;;;;;;;;;;;;;5068760;28;47331;-78
2022/09/07 03:34:09;;;;;;;;;;;;;;;;;;5067108;28;48405;-78
2022/09/07 03:36:35;;;;;;;;;;;;;;;;;;5069252;28;43557;-77
2022/09/07 03:39:01;;;;;;;;;;;;;;;;;;5069018;28;47217;-79
2022/09/07 03:41:27;;;;;;;;;;;;;;;;;;5062076;28;44457;-78
2022/09/07 03:43:54;;;;;;;;;;;;;;;;;;5067036;28;45485;-78
2022/09/07 03:46:20;;;;;;;;;;;;;;;;;;5065125;28;46823;-78
2022/09/07 03:48:46;;;;;;;;;;;;;;;;;;5066410;28;44695;-78
2022/09/07 03:51:12;;;;;;;;;;;;;;;;;;5068023;28;47766;-77
2022/09/07 03:53:39;;;;;;;;;;;;;;;;;;5068928;28;47791;-77
2022/09/07 03:56:05;;;;;;;;;;;;;;;;;;5069036;28;44869;-77
2022/09/07 03:58:31;;;;;;;;;;;;;;;;;;5065186;28;47514;-77
2022/09/07 04:00:58;;;;;;;;;;;;;;;;;;5067645;28;43392;-77
2022/09/07 04:03:24;;;;;;;;;;;;;;;;;;5065139;28;48031;-76
2022/09/07 04:05:50;;;;;;;;;;;;;;;;;;5067095;28;46012;-76
2022/09/07 04:08:16;;;;;;;;;;;;;;;;;;5067882;28;43754;-77
2022/09/07 04:10:43;;;;;;;;;;;;;;;;;;5067084;28;46392;-76
2022/09/07 04:13:09;;;;;;;;;;;;;;;;;;5065968;28;45940;-77
2022/09/07 04:15:36;;;;;;;;;;;;;;;;;;5067835;28;41876;-79
2022/09/07 04:18:02;;;;;;;;;;;;;;;;;;5066784;28;47476;-77
2022/09/07 04:20:28;;;;;;;;;;;;;;;;;;5063722;28;45244;-77
2022/09/07 04:22:54;;;;;;;;;;;;;;;;;;5064092;28;47577;-77
2022/09/07 04:25:21;;;;;;;;;;;;;;;;;;5066145;28;46029;-77
2022/09/07 04:27:47;;;;;;;;;;;;;;;;;;5065576;28;40705;-76
2022/09/07 04:30:13;;;;;;;;;;;;;;;;;;5067038;28;47476;-77
2022/09/07 04:32:39;;;;;;;;;;;;;;;;;;5064621;28;46071;-78
2022/09/07 04:35:05;;;;;;;;;;;;;;;;;;5067227;28;44799;-77
2022/09/07 04:37:32;;;;;;;;;;;;;;;;;;5066444;28;45788;-77
2022/09/07 04:39:58;;;;;;;;;;;;;;;;;;5065818;28;47896;-77
2022/09/07 04:42:24;;;;;;;;;;;;;;;;;;5065789;28;44444;-78
2022/09/07 04:44:51;;;;;;;;;;;;;;;;;;5066699;28;48117;-78
2022/09/07 04:47:17;;;;;;;;;;;;;;;;;;5066336;28;43792;-78
2022/09/07 04:49:43;;;;;;;;;;;;;;;;;;5053662;28;46340;-77
2022/09/07 04:52:09;;;;;;;;;;;;;;;;;;5058143;28;45846;-79
2022/09/07 04:54:35;;;;;;;;;;;;;;;;;;5058975;28;42715;-78
2022/09/07 04:57:02;;;;;;;;;;;;;;;;;;5050786;28;45280;-78
2022/09/07 04:59:28;;;;;;;;;;;;;;;;;;5067184;28;45518;-78
2022/09/07 05:01:54;;;;;;;;;;;;;;;;;;5052282;28;43582;-78
2022/09/07 05:04:21;;;;;;;;;;;;;;;;;;5057445;28;47045;-78
2022/09/07 05:06:49;;;;;;;;;;;;;;;;;;5066399;28;44464;-78
2022/09/07 05:09:15;;;;;;;;;;;;;;;;;;5064776;28;46006;-80
2022/09/07 05:11:41;;;;;;;;;;;;;;;;;;5062407;28;46991;-78
2022/09/07 05:14:08;;;;;;;;;;;;;;;;;;5047186;28;43648;-79
2022/09/07 05:16:34;;;;;;;;;;;;;;;;;;5054191;28;47485;-78
2022/09/07 05:19:00;;;;;;;;;;;;;;;;;;5066530;28;48484;-79
2022/09/07 05:21:27;;;;;;;;;;;;;;;;;;5063405;28;44764;-78
2022/09/07 05:23:53;;;;;;;;;;;;;;;;;;5046690;28;46282;-78
2022/09/07 05:26:19;;;;;;;;;;;;;;;;;;5057387;28;43693;-77
2022/09/07 05:28:45;;;;;;;;;;;;;;;;;;5061809;28;47865;-77
2022/09/07 05:31:12;;;;;;;;;;;;;;;;;;5065818;28;48088;-79
2022/09/07 05:33:41;;;;;;;;;;;;;;;;;;5065170;28;19929;-78
2022/09/07 05:36:27;;;;;;;;;;;;;;;;;;5064301;28;19929;-79
2022/09/07 05:38:54;;;;;;;;;;;;;;;;;;5062374;28;45243;-77
2022/09/07 05:41:20;;;;;;;;;;;;;;;;;;5058690;28;41738;-79
2022/09/07 05:43:46;;;;;;;;;;;;;;;;;;5068489;28;46138;-79
2022/09/07 05:46:32;;;;;;;;;;;;;;;;;;5066557;28;19929;-79
2022/09/07 05:49:00;;;;;;;;;;;;;;;;;;5062993;28;47633;-79
2022/09/07 05:51:26;;;;;;;;;;;;;;;;;;5065982;28;46861;-79
2022/09/07 05:53:52;;;;;;;;;;;;;;;;;;5065582;28;42893;-79
2022/09/07 05:56:18;;;;;;;;;;;;;;;;;;5066760;28;47320;-79
2022/09/07 05:58:45;;;;;;;;;;;;;;;;;;5061464;28;46407;-78
2022/09/07 06:01:11;;;;;;;;;;;;;;;;;;5063714;28;44914;-79
2022/09/07 06:03:37;;;;;;;;;;;;;;;;;;5064290;28;46548;-78
2022/09/07 06:06:03;;;;;;;;;;;;;;;;;;5074102;28;48454;-79
2022/09/07 06:08:33;;;;;;;;;;;;;;;;;;5069004;28;43554;-79
2022/09/07 06:10:59;;;;;;;;;;;;;;;;;;5066264;28;47073;-79
2022/09/07 06:13:25;;;;;;;;;;;;;;;;;;5067865;28;42435;-79
2022/09/07 06:15:52;;;;;;;;;;;;;;;;;;5066683;28;46119;-79
2022/09/07 06:18:18;;;;;;;;;;;;;;;;;;5059764;28;48482;-79
2022/09/07 06:20:44;;;;;;;;;;;;;;;;;;5070333;28;44791;-79
2022/09/07 06:23:10;;;;;;;;;;;;;;;;;;5063536;28;46111;-79
2022/09/07 06:25:37;;;;;;;;;;;;;;;;;;5070843;28;46245;-79
2022/09/07 06:28:03;;;;;;;;;;;;;;;;;;5053849;28;44724;-79
2022/09/07 06:30:29;;;;;;;;;;;;;;;;;;5055352;28;47283;-79
2022/09/07 06:32:58;;;;;;;;;;;;;;;;;;5066453;28;43767;-78
2022/09/07 06:35:25;;;;;;;;;;;;;;;;;;5068648;28;47474;-78
2022/09/07 06:37:51;;;;;;;;;;;;;;;;;;5068675;28;48556;-78
2022/09/07 06:40:17;;;;;;;;;;;;;;;;;;5062945;28;43700;-78
2022/09/07 06:42:43;;;;;;;;;;;;;;;;;;5065195;28;44793;-78
2022/09/07 06:45:10;;;;;;;;;;;;;;;;;;5075067;28;48045;-78
2022/09/07 06:47:37;;;;;;;;;;;;;;;;;;5061465;28;43519;-78
2022/09/07 06:50:03;;;;;;;;;;;;;;;;;;5059989;28;47649;-77
2022/09/07 06:52:29;;;;;;;;;;;;;;;;;;5089661;28;48083;-79
2022/09/07 06:55:15;;;;;;;;;;;;;;;;;;5066444;28;19925;-80
2022/09/07 06:57:41;;;;;;;;;;;;;;;;;;5050846;28;46808;-80
2022/09/07 07:00:08;;;;;;;;;;;;;;;;;;5060735;28;43789;-78
2022/09/07 07:02:34;;;;;;;;;;;;;;;;;;5069090;28;46683;-78
2022/09/07 07:05:00;;;;;;;;;;;;;;;;;;5070944;28;45141;-79
2022/09/07 07:07:26;;;;;;;;;;;;;;;;;;5068747;28;43632;-80
2022/09/07 07:09:53;;;;;;;;;;;;;;;;;;5068269;28;47122;-79
2022/09/07 07:12:19;;;;;;;;;;;;;;;;;;5067236;28;48201;-79
2022/09/07 07:14:44;;;;;;;;;;;;;;;;;;5073489;28;19923;-80
2022/09/07 07:17:10;;;;;;;;;;;;;;;;;;5060001;28;46208;-79
2022/09/07 07:19:36;;;;;;;;;;;;;;;;;;5071428;28;46093;-80
2022/09/07 07:22:03;;;;;;;;;;;;;;;;;;5057020;28;47303;-79
2022/09/07 07:24:51;;;;;;;;;;;;;;;;;;5059548;28;19933;-79
2022/09/07 07:27:20;;;;;;;;;;;;;;;;;;5069784;28;44422;-79
2022/09/07 07:29:46;;;;;;;;;;;;;;;;;;5057296;28;46217;-78
2022/09/07 07:32:12;;;;;;;;;;;;;;;;;;5064523;28;46622;-80
2022/09/07 07:34:39;;;;;;;;;;;;;;;;;;5059424;28;44319;-80
2022/09/07 07:37:05;;;;;;;;;;;;;;;;;;5074313;28;47489;-79
2022/09/07 07:39:31;;;;;;;;;;;;;;;;;;5086339;28;45004;-80
2022/09/07 07:42:17;;;;;;;;;;;;;;;;;;5069542;28;19928;-79
2022/09/07 07:44:44;;;;;;;;;;;;;;;;;;5063636;28;49520;-79
2022/09/07 07:47:10;;;;;;;;;;;;;;;;;;5074875;28;43296;-79
2022/09/07 07:49:36;;;;;;;;;;;;;;;;;;5067356;28;45052;-78
2022/09/07 07:52:05;;;;;;;;;;;;;;;;;;5073548;28;46933;-78
2022/09/07 07:54:51;;;;;;;;;;;;;;;;;;5070075;28;19998;-78
2022/09/07 07:57:18;;;;;;;;;;;;;;;;;;5071132;28;46220;-78
2022/09/07 07:59:44;;;;;;;;;;;;;;;;;;5055912;28;44017;-79
2022/09/07 08:02:10;;;;;;;;;;;;;;;;;;5071331;28;45056;-78
2022/09/07 08:04:36;;;;;;;;;;;;;;;;;;5071127;28;48687;-78
2022/09/07 08:07:02;;;;;;;;;;;;;;;;;;5060012;28;42207;-77
2022/09/07 08:09:36;;;;;;;;;;;;;;;;;;5067490;28;46256;-76
2022/09/07 08:12:02;;;;;;;;;;;;;;;;;;5066067;28;48374;-76
2022/09/07 08:14:28;;;;;;;;;;;;;;;;;;5067708;28;44005;-76
2022/09/07 08:16:55;;;;;;;;;;;;;;;;;;5066781;28;47719;-79
2022/09/07 08:19:21;;;;;;;;;;;;;;;;;;5066267;28;45682;-77
2022/09/07 08:21:47;;;;;;;;;;;;;;;;;;5065314;28;47518;-77
2022/09/07 08:24:13;;;;;;;;;;;;;;;;;;5067378;28;48475;-77
2022/09/07 08:26:40;;;;;;;;;;;;;;;;;;5068314;28;45050;-76
2022/09/07 08:29:06;;;;;;;;;;;;;;;;;;5068205;28;47404;-77
2022/09/07 08:31:32;;;;;;;;;;;;;;;;;;5066417;28;44405;-77
2022/09/07 08:33:58;;;;;;;;;;;;;;;;;;5064735;28;42939;-76
2022/09/07 08:36:24;;;;;;;;;;;;;;;;;;5066944;28;47035;-76
2022/09/07 08:38:51;;;;;;;;;;;;;;;;;;5066341;28;48376;-75
2022/09/07 08:41:17;;;;;;;;;;;;;;;;;;5066446;28;44027;-75
2022/09/07 08:43:43;;;;;;;;;;;;;;;;;;5066370;28;47202;-76
2022/09/07 08:46:14;;;;;;;;;;;;;;;;;;5064154;28;44903;-76
2022/09/07 08:48:40;;;;;;;;;;;;;;;;;;5062238;28;47764;-76
2022/09/07 08:51:06;;;;;;;;;;;;;;;;;;5057769;28;47316;-74
2022/09/07 08:53:32;;;;;;;;;;;;;;;;;;5061583;28;43929;-75
2022/09/07 08:55:58;;;;;;;;;;;;;;;;;;5064529;28;47625;-77
2022/09/07 08:58:25;;;;;;;;;;;;;;;;;;5060890;28;47587;-77
2022/09/07 09:01:11;;;;;;;;;;;;;;;;;;5063334;28;19936;-76
2022/09/07 09:03:57;;;;;;;;;;;;;;;;;;5068627;28;20502;-78
2022/09/07 09:06:43;;;;;;;;;;;;;;;;;;5066911;28;19975;-77
2022/09/07 09:09:09;;;;;;;;;;;;;;;;;;5063133;28;46587;-75
2022/09/07 09:11:36;;;;;;;;;;;;;;;;;;5064603;28;48365;-76
2022/09/07 09:14:02;;;;;;;;;;;;;;;;;;5061101;28;42450;-76
2022/09/07 09:16:28;;;;;;;;;;;;;;;;;;5058305;28;46698;-77
2022/09/07 09:18:54;;;;;;;;;;;;;;;;;;5058389;28;48092;-75
2022/09/07 09:21:20;;;;;;;;;;;;;;;;;;5059865;28;45104;-77
2022/09/07 09:23:47;;;;;;;;;;;;;;;;;;5065462;28;47027;-74
2022/09/07 09:26:13;;;;;;;;;;;;;;;;;;5061007;28;45125;-77
2022/09/07 09:28:39;;;;;;;;;;;;;;;;;;5066195;28;47448;-76
2022/09/07 09:31:05;;;;;;;;;;;;;;;;;;5067511;28;46077;-76
2022/09/07 09:33:31;;;;;;;;;;;;;;;;;;5067552;28;44725;-77
2022/09/07 09:36:01;;;;;;;;;;;;;;;;;;5065579;28;47723;-76
2022/09/07 09:38:33;;;;;;;;;;;;;;;;;;5062493;28;47309;-74
2022/09/07 09:41:00;;;;;;;;;;;;;;;;;;5057099;28;43765;-76
2022/09/07 09:43:26;;;;;;;;;;;;;;;;;;5061277;28;45963;-74
2022/09/07 09:45:52;;;;;;;;;;;;;;;;;;5060428;28;46897;-75
2022/09/07 09:48:40;;;;;;;;;;;;;;;;;;5065891;28;20391;-77
2022/09/07 09:51:06;;;;;;;;;;;;;;;;;;5063805;28;47385;-82
2022/09/07 09:53:52;;;;;;;;;;;;;;;;;;5060401;28;19979;-76
2022/09/07 09:56:18;;;;;;;;;;;;;;;;;;5067147;28;46232;-76
2022/09/07 09:58:46;;;;;;;;;;;;;;;;;;5060508;28;47109;-74
2022/09/07 10:01:32;;;;;;;;;;;;;;;;;;5062925;28;19975;-74
2022/09/07 10:04:00;;;;;;;;;;;;;;;;;;5062444;28;47615;-76
2022/09/07 10:06:31;;;;;;;;;;;;;;;;;;5059615;28;47185;-77
2022/09/07 10:08:57;;;;;;;;;;;;;;;;;;5060957;28;43484;-76
2022/09/07 10:11:23;;;;;;;;;;;;;;;;;;5062756;28;45712;-77
2022/09/07 10:14:10;;;;;;;;;;;;;;;;;;5060892;28;20100;-77
2022/09/07 10:16:36;;;;;;;;;;;;;;;;;;5060876;28;45652;-79
2022/09/07 10:19:02;;;;;;;;;;;;;;;;;;5062374;28;45642;-76
2022/09/07 10:21:28;;;;;;;;;;;;;;;;;;5062974;28;45167;-75
2022/09/07 10:23:54;;;;;;;;;;;;;;;;;;5062108;28;47941;-75
2022/09/07 10:26:21;;;;;;;;;;;;;;;;;;5066280;28;47170;-76
2022/09/07 10:28:47;;;;;;;;;;;;;;;;;;5057100;28;45080;-74
2022/09/07 10:31:33;;;;;;;;;;;;;;;;;;5061673;28;19933;-76
2022/09/07 10:33:59;;;;;;;;;;;;;;;;;;5056514;28;44835;-74
2022/09/07 10:36:46;;;;;;;;;;;;;;;;;;5068950;28;19976;-75
2022/09/07 10:39:12;;;;;;;;;;;;;;;;;;5063065;28;48462;-77
2022/09/07 10:41:38;;;;;;;;;;;;;;;;;;5058566;28;42597;-74
2022/09/07 10:44:04;;;;;;;;;;;;;;;;;;5066932;28;47486;-74
2022/09/07 10:46:31;;;;;;;;;;;;;;;;;;5063459;28;48359;-73
2022/09/07 10:49:20;;;;;;;;;;;;;;;;;;5064851;28;19979;-80
2022/09/07 10:51:46;;;;;;;;;;;;;;;;;;5063127;28;44784;-76
2022/09/07 10:54:12;;;;;;;;;;;;;;;;;;5067975;28;48609;-81
2022/09/07 10:56:58;;;;;;;;;;;;;;;;;;5063955;28;19929;-75
2022/09/07 10:59:24;;;;;;;;;;;;;;;;;;5066336;28;45307;-75
2022/09/07 11:01:51;;;;;;;;;;;;;;;;;;5066494;28;42694;-75
2022/09/07 11:04:17;;;;;;;;;;;;;;;;;;5059055;28;46371;-75
2022/09/07 11:06:44;;;;;;;;;;;;;;;;;;5068445;28;48367;-74
2022/09/07 11:09:10;;;;;;;;;;;;;;;;;;5064400;28;44968;-75
2022/09/07 11:11:44;;;;;;;;;;;;;;;;;;5068400;28;46684;-74
2022/09/07 11:14:27;;;;;;;;;;;;;;;;;;5066453;28;46955;-75
2022/09/07 11:16:53;;;;;;;;;;;;;;;;;;5063321;28;43913;-75
2022/09/07 11:19:19;;;;;;;;;;;;;;;;;;5068278;28;47078;-74
2022/09/07 11:22:02;;;;;;;;;;;;;;;;;;5070286;28;43792;-74
2022/09/07 11:24:28;;;;;;;;;;;;;;;;;;5069031;28;47953;-75
2022/09/07 11:26:54;;;;;;;;;;;;;;;;;;5063413;28;47271;-75
2022/09/07 11:29:20;;;;;;;;;;;;;;;;;;5069507;28;45102;-75
2022/09/07 11:31:54;;;;;;;;;;;;;;;;;;5068672;28;47548;-75
2022/09/07 11:34:21;;;;;;;;;;;;;;;;;;5068293;28;48755;-75
2022/09/07 11:36:50;;;;;;;;;;;;;;;;;;5061041;28;43877;-74
2022/09/07 11:39:16;;;;;;;;;;;;;;;;;;5068329;28;45525;-75
2022/09/07 11:41:43;;;;;;;;;;;;;;;;;;5068589;28;44006;-75
2022/09/07 11:44:12;;;;;;;;;;;;;;;;;;5054718;28;47664;-75
2022/09/07 11:46:38;;;;;;;;;;;;;;;;;;5062198;28;48336;-75
2022/09/07 11:49:05;;;;;;;;;;;;;;;;;;5067530;28;42118;-75
2022/09/07 11:51:31;;;;;;;;;;;;;;;;;;5066523;28;46716;-75
2022/09/07 11:53:57;;;;;;;;;;;;;;;;;;5066882;28;48529;-75
2022/09/07 11:56:23;;;;;;;;;;;;;;;;;;5066546;28;44878;-75
2022/09/07 11:58:49;;;;;;;;;;;;;;;;;;5067642;28;47706;-75
2022/09/07 12:01:16;;;;;;;;;;;;;;;;;;5063865;28;44011;-75
2022/09/07 12:03:42;;;;;;;;;;;;;;;;;;5067483;28;45388;-75
2022/09/07 12:06:08;;;;;;;;;;;;;;;;;;5067050;28;48675;-75
2022/09/07 12:08:34;;;;;;;;;;;;;;;;;;5068937;28;45094;-75
2022/09/07 12:11:01;;;;;;;;;;;;;;;;;;5067578;28;46722;-75
2022/09/07 12:13:27;;;;;;;;;;;;;;;;;;5062931;28;48400;-75
2022/09/07 12:15:53;;;;;;;;;;;;;;;;;;5065835;28;44037;-75
2022/09/07 12:18:19;;;;;;;;;;;;;;;;;;5050494;28;45409;-75
2022/09/07 12:20:45;;;;;;;;;;;;;;;;;;5065341;28;48608;-75
2022/09/07 12:23:11;;;;;;;;;;;;;;;;;;5066383;28;45519;-79
2022/09/07 12:25:38;;;;;;;;;;;;;;;;;;5064786;28;50297;-77
2022/09/07 12:28:04;;;;;;;;;;;;;;;;;;5061024;28;45389;-76
2022/09/07 12:30:31;;;;;;;;;;;;;;;;;;5068093;28;47066;-78
2022/09/07 12:32:57;;;;;;;;;;;;;;;;;;5060529;28;48438;-76
2022/09/07 12:35:24;;;;;;;;;;;;;;;;;;5068494;28;45357;-75
2022/09/07 12:37:50;;;;;;;;;;;;;;;;;;5066219;28;46264;-75
2022/09/07 12:40:16;;;;;;;;;;;;;;;;;;5067336;28;47563;-75
2022/09/07 12:42:42;;;;;;;;;;;;;;;;;;5067333;28;43724;-74
2022/09/07 12:45:08;;;;;;;;;;;;;;;;;;5065125;28;47283;-75
2022/09/07 12:47:36;;;;;;;;;;;;;;;;;;5066138;28;43996;-76
2022/09/07 12:50:05;;;;;;;;;;;;;;;;;;5067397;28;48785;-75
2022/09/07 12:52:31;;;;;;;;;;;;;;;;;;5067316;28;48482;-76
2022/09/07 12:54:57;;;;;;;;;;;;;;;;;;5067373;28;43910;-75
2022/09/07 12:57:43;;;;;;;;;;;;;;;;;;5065556;28;20019;-75
2022/09/07 13:00:10;;;;;;;;;;;;;;;;;;5067822;28;45857;-75
2022/09/07 13:02:36;;;;;;;;;;;;;;;;;;5062879;28;45121;-75
2022/09/07 13:05:03;;;;;;;;;;;;;;;;;;5059455;28;46609;-76
2022/09/07 13:07:29;;;;;;;;;;;;;;;;;;5063663;28;45120;-76
2022/09/07 13:09:55;;;;;;;;;;;;;;;;;;5065465;28;47198;-78
2022/09/07 13:12:22;;;;;;;;;;;;;;;;;;5066458;28;48261;-78
2022/09/07 13:15:08;;;;;;;;;;;;;;;;;;5065460;28;19975;-77
2022/09/07 13:17:42;;;;;;;;;;;;;;;;;;5062024;28;47457;-76
2022/09/07 13:20:08;;;;;;;;;;;;;;;;;;5065757;28;48350;-77
2022/09/07 13:22:34;;;;;;;;;;;;;;;;;;5062095;28;42846;-77
2022/09/07 13:25:00;;;;;;;;;;;;;;;;;;5056241;28;47811;-76
2022/09/07 13:27:27;;;;;;;;;;;;;;;;;;5061305;28;34876;-75
2022/09/07 13:29:53;;;;;;;;;;;;;;;;;;5066523;28;47756;-77
2022/09/07 13:32:21;;;;;;;;;;;;;;;;;;5061879;28;47329;-77
2022/09/07 13:35:08;;;;;;;;;;;;;;;;;;5065048;28;19961;-76
2022/09/07 13:37:34;;;;;;;;;;;;;;;;;;5059655;28;49233;-77
2022/09/07 13:40:00;;;;;;;;;;;;;;;;;;5064527;28;45065;-75
2022/09/07 13:42:26;;;;;;;;;;;;;;;;;;5062287;28;44054;-76
2022/09/07 13:44:53;;;;;;;;;;;;;;;;;;5064628;28;46565;-75
2022/09/07 13:47:20;;;;;;;;;;;;;;;;;;5067562;28;48721;-75
2022/09/07 13:49:46;;;;;;;;;;;;;;;;;;5066654;28;47857;-75
2022/09/07 13:52:12;;;;;;;;;;;;;;;;;;5062490;28;47160;-75
2022/09/07 13:54:38;;;;;;;;;;;;;;;;;;5062568;28;45102;-77
2022/09/07 13:57:04;;;;;;;;;;;;;;;;;;5064325;28;46668;-74
2022/09/07 13:59:32;;;;;;;;;;;;;;;;;;5059185;28;47210;-73
2022/09/07 14:01:58;;;;;;;;;;;;;;;;;;5061614;28;43907;-74
2022/09/07 14:04:24;;;;;;;;;;;;;;;;;;5066990;28;46695;-74
2022/09/07 14:06:51;;;;;;;;;;;;;;;;;;5062741;28;48394;-75
2022/09/07 14:09:17;;;;;;;;;;;;;;;;;;5066161;28;45077;-75
2022/09/07 14:11:43;;;;;;;;;;;;;;;;;;5060283;28;47334;-74
2022/09/07 14:14:09;;;;;;;;;;;;;;;;;;5081885;28;43818;-76
2022/09/07 14:16:35;;;;;;;;;;;;;;;;;;5061847;28;47738;-77
2022/09/07 14:19:03;;;;;;;;;;;;;;;;;;5067064;28;37228;-76
2022/09/07 14:21:30;;;;;;;;;;;;;;;;;;5065072;28;42856;-76
2022/09/07 14:23:57;;;;;;;;;;;;;;;;;;5064602;28;46680;-76
2022/09/07 14:26:23;;;;;;;;;;;;;;;;;;5052406;28;46833;-76
2022/09/07 14:28:49;;;;;;;;;;;;;;;;;;5063723;28;45073;-76
2022/09/07 14:31:15;;;;;;;;;;;;;;;;;;5064608;28;47665;-77
2022/09/07 14:33:42;;;;;;;;;;;;;;;;;;5063251;28;45059;-76
2022/09/07 14:36:11;;;;;;;;;;;;;;;;;;5062636;28;47811;-76
2022/09/07 14:39:00;;;;;;;;;;;;;;;;;;5063686;28;19940;-76
2022/09/07 14:41:32;;;;;;;;;;;;;;;;;;5053722;28;43927;-74
2022/09/07 14:43:58;;;;;;;;;;;;;;;;;;5065656;28;47936;-77
2022/09/07 14:46:25;;;;;;;;;;;;;;;;;;5067477;28;46175;-75
2022/09/07 14:48:51;;;;;;;;;;;;;;;;;;5064831;28;44710;-75
2022/09/07 14:51:17;;;;;;;;;;;;;;;;;;5047678;28;46814;-74
2022/09/07 14:53:58;;;;;;;;;;;;;;;;;;5067130;28;47019;-75
2022/09/07 14:56:24;;;;;;;;;;;;;;;;;;5062132;28;47740;-76
2022/09/07 14:58:51;;;;;;;;;;;;;;;;;;5065209;28;46906;-76
2022/09/07 15:01:17;;;;;;;;;;;;;;;;;;5064517;28;45172;-77
2022/09/07 15:04:03;;;;;;;;;;;;;;;;;;5061679;28;20468;-76
2022/09/07 15:06:30;;;;;;;;;;;;;;;;;;5062483;28;45910;-76
2022/09/07 15:09:16;;;;;;;;;;;;;;;;;;5061690;28;19933;-76
2022/09/07 15:11:42;;;;;;;;;;;;;;;;;;5059263;28;47038;-75
2022/09/07 15:14:09;;;;;;;;;;;;;;;;;;5056258;28;48369;-76
2022/09/07 15:16:35;;;;;;;;;;;;;;;;;;5062049;28;43817;-77
2022/09/07 15:19:01;;;;;;;;;;;;;;;;;;5052555;28;48172;-76
2022/09/07 15:21:27;;;;;;;;;;;;;;;;;;5064667;28;44041;-76
2022/09/07 15:23:53;;;;;;;;;;;;;;;;;;5060604;28;47659;-76
2022/09/07 15:26:20;;;;;;;;;;;;;;;;;;5064373;28;48391;-76
2022/09/07 15:29:06;;;;;;;;;;;;;;;;;;5065289;28;19968;-76
2022/09/07 15:31:35;;;;;;;;;;;;;;;;;;5067988;28;47663;-76
2022/09/07 15:34:08;;;;;;;;;;;;;;;;;;5069507;28;48701;-76
2022/09/07 15:36:35;;;;;;;;;;;;;;;;;;5068639;28;45045;-76
2022/09/07 15:39:01;;;;;;;;;;;;;;;;;;5063385;28;48292;-77
2022/09/07 15:41:28;;;;;;;;;;;;;;;;;;5069312;28;41899;-77
2022/09/07 15:43:54;;;;;;;;;;;;;;;;;;5065066;28;47162;-77
2022/09/07 15:46:21;;;;;;;;;;;;;;;;;;5064564;28;47583;-76
2022/09/07 15:48:50;;;;;;;;;;;;;;;;;;5064839;28;43721;-77
2022/09/07 15:51:16;;;;;;;;;;;;;;;;;;5062165;28;47400;-76
2022/09/07 15:54:02;;;;;;;;;;;;;;;;;;5064865;28;20388;-77
2022/09/07 15:56:33;;;;;;;;;;;;;;;;;;5061915;28;43912;-78
2022/09/07 15:59:01;;;;;;;;;;;;;;;;;;5063532;28;46700;-79
2022/09/07 16:01:28;;;;;;;;;;;;;;;;;;5068282;28;43552;-79
2022/09/07 16:04:14;;;;;;;;;;;;;;;;;;5068492;28;19932;-76
2022/09/07 16:06:40;;;;;;;;;;;;;;;;;;5067986;28;47798;-75
2022/09/07 16:09:06;;;;;;;;;;;;;;;;;;5064849;28;44041;-75
2022/09/07 16:11:33;;;;;;;;;;;;;;;;;;5058196;28;47664;-75
2022/09/07 16:14:00;;;;;;;;;;;;;;;;;;5065902;28;47327;-74
2022/09/07 16:16:27;;;;;;;;;;;;;;;;;;5060937;28;45518;-76
2022/09/07 16:19:13;;;;;;;;;;;;;;;;;;5055413;28;19980;-76
2022/09/07 16:21:40;;;;;;;;;;;;;;;;;;5064291;28;45524;-76
2022/09/07 16:24:09;;;;;;;;;;;;;;;;;;5050477;28;47767;-75
2022/09/07 16:26:35;;;;;;;;;;;;;;;;;;5057303;28;48414;-75
2022/09/07 16:29:02;;;;;;;;;;;;;;;;;;5079599;28;45098;-76
2022/09/07 16:31:29;;;;;;;;;;;;;;;;;;5061537;28;45967;-76
2022/09/07 16:33:56;;;;;;;;;;;;;;;;;;5051843;28;47980;-76
2022/09/07 16:36:23;;;;;;;;;;;;;;;;;;5062122;28;41216;-75
2022/09/07 16:38:49;;;;;;;;;;;;;;;;;;5066522;28;47711;-75
2022/09/07 16:41:15;;;;;;;;;;;;;;;;;;5065815;28;47324;-74
2022/09/07 16:43:41;;;;;;;;;;;;;;;;;;5063376;28;44017;-77
2022/09/07 16:46:08;;;;;;;;;;;;;;;;;;5071421;28;47046;-76
2022/09/07 16:48:34;;;;;;;;;;;;;;;;;;5062264;28;45027;-76
2022/09/07 16:51:00;;;;;;;;;;;;;;;;;;5047879;28;46637;-76